Time;durP1;ratioP1;P1;durP2;ratioP2;P2;SDS_P1;SDS_P2;PMS_P1;PMS_P2;Temp;Humidity;BMP_temperature;BMP_pressure;BME280_temperature;BME280_humidity;BME280_pressure;Samples;Min_cycle;Max_cycle;Signal;HPM_P1;HPM_P2
2023/12/22 00:01:07;;;;;;;2.30;0.77;;;6.40;99.90;;;;;;4994713;28;20192;-63
2023/12/22 00:03:32;;;;;;;2.07;1.10;;;6.40;99.90;;;;;;4990443;28;20198;-64
2023/12/22 00:05:58;;;;;;;1.63;0.80;;;6.40;99.90;;;;;;4993284;28;20584;-63
2023/12/22 00:08:23;;;;;;;3.77;1.00;;;6.40;99.90;;;;;;4996454;28;20235;-63
2023/12/22 00:10:49;;;;;;;5.23;0.93;;;6.30;99.90;;;;;;4996142;28;20203;-64
2023/12/22 00:13:14;;;;;;;1.70;0.80;;;6.60;99.90;;;;;;4993782;28;20188;-58
2023/12/22 00:15:42;;;;;;;5.60;0.80;;;6.30;99.90;;;;;;4994662;28;20180;-58
2023/12/22 00:18:07;;;;;;;8.90;1.13;;;6.30;99.90;;;;;;4986780;28;20204;-64
2023/12/22 00:20:33;;;;;;;2.07;0.90;;;6.30;99.90;;;;;;4995359;28;20528;-64
2023/12/22 00:22:58;;;;;;;1.40;0.77;;;7.20;99.90;;;;;;4990833;28;20204;-63
2023/12/22 00:25:24;;;;;;;13.33;2.07;;;6.40;99.90;;;;;;4990481;28;20221;-64
2023/12/22 00:27:49;;;;;;;1.93;0.93;;;6.40;99.90;;;;;;4995885;28;20969;-63
2023/12/22 00:30:15;;;;;;;2.73;1.57;;;6.40;99.90;;;;;;4991885;28;20209;-63
2023/12/22 00:32:40;;;;;;;5.63;0.87;;;6.50;99.90;;;;;;4986826;28;20188;-63
2023/12/22 00:35:06;;;;;;;2.03;0.70;;;6.50;99.90;;;;;;4995129;28;20191;-63
2023/12/22 00:37:31;;;;;;;4.20;1.27;;;6.50;99.90;;;;;;4993180;28;20552;-58
2023/12/22 00:39:57;;;;;;;1.73;0.90;;;6.60;99.90;;;;;;4992435;28;20760;-58
2023/12/22 00:42:22;;;;;;;4.30;1.13;;;6.60;99.90;;;;;;4993240;28;20262;-56
2023/12/22 00:44:48;;;;;;;2.30;0.80;;;6.60;99.90;;;;;;4988420;28;20203;-56
2023/12/22 00:47:13;;;;;;;9.13;1.30;;;6.50;99.90;;;;;;4993050;28;20277;-56
2023/12/22 00:49:39;;;;;;;3.47;0.50;;;6.60;99.90;;;;;;4990918;28;20212;-56
2023/12/22 00:52:05;;;;;;;2.27;0.80;;;6.60;99.90;;;;;;4992418;28;20191;-62
2023/12/22 00:54:31;;;;;;;1.70;0.67;;;6.50;99.90;;;;;;4993848;28;20179;-61
2023/12/22 00:56:57;;;;;;;5.00;1.50;;;6.60;99.90;;;;;;4992972;28;20182;-61
2023/12/22 00:59:23;;;;;;;2.43;1.10;;;6.50;99.90;;;;;;4994314;28;20916;-62
2023/12/22 01:01:49;;;;;;;5.73;1.87;;;6.50;99.90;;;;;;4994594;28;20426;-61
2023/12/22 01:04:14;;;;;;;5.17;0.77;;;6.50;99.90;;;;;;4994135;28;20191;-62
2023/12/22 01:06:40;;;;;;;3.50;1.43;;;6.50;99.90;;;;;;4993732;28;20235;-62
2023/12/22 01:09:05;;;;;;;2.83;1.20;;;6.60;99.90;;;;;;4993158;28;20671;-61
2023/12/22 01:11:31;;;;;;;4.90;0.87;;;6.50;99.90;;;;;;4993937;28;20695;-61
2023/12/22 01:13:57;;;;;;;7.13;1.00;;;6.50;99.90;;;;;;4992781;28;20580;-62
2023/12/22 01:16:23;;;;;;;1.23;0.60;;;6.50;99.90;;;;;;4993074;28;20534;-61
2023/12/22 01:18:50;;;;;;;7.03;1.07;;;6.50;99.90;;;;;;4993045;28;20339;-63
2023/12/22 01:21:16;;;;;;;2.00;0.80;;;6.80;99.90;;;;;;4988662;28;20821;-58
2023/12/22 01:23:41;;;;;;;1.90;0.70;;;6.50;99.90;;;;;;4993057;28;20423;-58
2023/12/22 01:26:07;;;;;;;3.53;0.97;;;6.50;99.90;;;;;;4992807;28;20676;-58
2023/12/22 01:28:34;;;;;;;1.30;0.60;;;6.40;99.90;;;;;;4992219;28;20184;-56
2023/12/22 01:31:00;;;;;;;1.20;0.60;;;6.40;99.90;;;;;;4988888;28;20207;-56
2023/12/22 01:33:25;;;;;;;2.60;0.53;;;6.30;99.90;;;;;;4990045;28;21071;-56
2023/12/22 01:35:51;;;;;;;4.47;1.13;;;6.30;99.90;;;;;;4991474;28;20207;-56
2023/12/22 01:38:16;;;;;;;2.40;1.27;;;6.20;99.90;;;;;;4993454;28;20572;-62
2023/12/22 01:40:42;;;;;;;1.00;0.40;;;6.10;99.90;;;;;;4984296;28;20196;-62
2023/12/22 01:43:07;;;;;;;1.00;0.40;;;6.10;99.90;;;;;;4989752;28;20188;-62
2023/12/22 01:45:33;;;;;;;1.73;0.60;;;6.00;99.90;;;;;;4989463;28;21410;-62
2023/12/22 01:47:58;;;;;;;1.93;0.40;;;6.00;99.90;;;;;;4993188;28;20191;-62
2023/12/22 01:50:24;;;;;;;1.00;0.47;;;6.00;99.90;;;;;;4989943;28;20210;-62
2023/12/22 01:52:50;;;;;;;1.53;0.60;;;5.90;99.90;;;;;;4993004;28;20923;-62
2023/12/22 01:55:17;;;;;;;1.03;0.50;;;6.00;99.90;;;;;;4992553;28;20423;-62
2023/12/22 01:57:44;;;;;;;1.80;0.70;;;6.00;99.90;;;;;;4993230;28;20180;-62
2023/12/22 02:00:10;;;;;;;1.00;0.40;;;5.90;99.90;;;;;;4992290;28;20430;-62
2023/12/22 02:02:38;;;;;;;1.13;0.40;;;5.90;99.90;;;;;;4992719;28;20566;-56
2023/12/22 02:05:04;;;;;;;1.93;0.50;;;5.90;99.90;;;;;;4992141;28;20415;-56
2023/12/22 02:07:30;;;;;;;2.40;0.50;;;5.80;99.90;;;;;;4991526;28;20517;-56
2023/12/22 02:09:56;;;;;;;1.53;0.63;;;5.90;99.90;;;;;;4987074;28;20935;-56
2023/12/22 02:12:21;;;;;;;1.50;0.50;;;6.00;99.90;;;;;;4992093;28;20423;-56
2023/12/22 02:14:47;;;;;;;6.73;0.97;;;6.10;99.90;;;;;;4992403;28;20551;-56
2023/12/22 02:17:25;;;;;;;1.10;0.50;;;6.20;99.90;;;;;;4983899;28;20552;-56
2023/12/22 02:19:50;;;;;;;3.80;1.00;;;6.20;99.90;;;;;;4991087;28;20237;-56
2023/12/22 02:22:16;;;;;;;1.63;0.67;;;6.20;99.90;;;;;;4991367;28;20924;-62
2023/12/22 02:24:42;;;;;;;1.67;0.73;;;6.20;99.90;;;;;;4992548;28;20184;-62
2023/12/22 02:27:13;;;;;;;2.50;0.90;;;6.20;99.90;;;;;;4991690;28;20223;-62
2023/12/22 02:29:46;;;;;;;6.20;0.83;;;6.20;99.90;;;;;;4988029;28;20218;-62
2023/12/22 02:32:44;;;;;;;1.83;0.80;;;6.10;99.90;;;;;;4989017;28;20453;-62
2023/12/22 02:35:17;;;;;;;2.20;1.00;;;6.20;99.90;;;;;;4970928;28;20430;-62
2023/12/22 02:37:45;;;;;;;3.87;1.20;;;6.20;99.90;;;;;;4991973;28;20481;-62
2023/12/22 02:40:11;;;;;;;3.73;0.80;;;6.20;99.90;;;;;;4991310;28;20959;-62
2023/12/22 02:42:38;;;;;;;2.77;0.80;;;6.20;99.90;;;;;;4991914;28;20415;-61
2023/12/22 02:45:05;;;;;;;7.13;1.70;;;6.30;99.90;;;;;;4983878;28;20430;-61
2023/12/22 02:47:33;;;;;;;1.87;1.10;;;6.30;99.90;;;;;;4990510;28;20435;-61
2023/12/22 02:49:59;;;;;;;5.83;0.80;;;6.40;99.90;;;;;;4992029;28;20463;-62
2023/12/22 02:52:24;;;;;;;4.10;1.17;;;6.50;99.90;;;;;;4991117;28;20430;-56
2023/12/22 02:54:50;;;;;;;1.50;0.70;;;6.40;99.90;;;;;;4991543;28;20184;-56
2023/12/22 02:57:15;;;;;;;7.03;0.90;;;6.50;99.90;;;;;;4980800;28;20190;-61
2023/12/22 02:59:41;;;;;;;3.33;1.00;;;6.50;99.90;;;;;;4972044;28;20188;-63
2023/12/22 03:02:06;;;;;;;6.60;1.23;;;6.50;99.90;;;;;;4991503;28;20195;-64
2023/12/22 03:04:32;;;;;;;4.70;1.20;;;6.50;99.90;;;;;;4991639;28;20732;-64
2023/12/22 03:06:57;;;;;;;3.10;1.50;;;6.40;99.90;;;;;;4990799;28;20719;-58
2023/12/22 03:09:23;;;;;;;2.80;0.80;;;6.50;99.90;;;;;;4988139;28;20220;-58
2023/12/22 03:11:49;;;;;;;1.43;0.70;;;6.40;99.90;;;;;;4990485;28;20191;-58
2023/12/22 03:14:14;;;;;;;2.50;0.97;;;6.30;99.90;;;;;;4986968;28;20584;-58
2023/12/22 03:16:40;;;;;;;1.00;0.47;;;6.20;99.90;;;;;;4986017;28;20644;-64
2023/12/22 03:19:07;;;;;;;1.73;0.73;;;6.20;99.90;;;;;;4988592;28;20223;-64
2023/12/22 03:21:32;;;;;;;8.10;1.43;;;6.30;99.90;;;;;;4994999;28;20235;-63
2023/12/22 03:23:58;;;;;;;2.60;1.00;;;6.40;99.90;;;;;;4995196;28;20419;-63
2023/12/22 03:26:26;;;;;;;2.73;0.90;;;6.30;99.90;;;;;;4994914;28;20210;-58
2023/12/22 03:28:51;;;;;;;8.10;1.83;;;6.30;99.90;;;;;;4995326;28;20227;-58
2023/12/22 03:31:17;;;;;;;2.67;1.17;;;6.40;99.90;;;;;;4990450;28;20478;-63
2023/12/22 03:33:42;;;;;;;7.73;1.00;;;6.40;99.90;;;;;;4995214;28;20180;-63
2023/12/22 03:36:08;;;;;;;1.87;1.00;;;6.40;99.90;;;;;;4994987;28;20598;-64
2023/12/22 03:38:33;;;;;;;2.40;0.60;;;6.50;99.90;;;;;;4995110;28;20187;-64
2023/12/22 03:40:59;;;;;;;1.53;0.60;;;6.50;99.90;;;;;;4989652;28;20580;-64
2023/12/22 03:43:25;;;;;;;1.77;0.80;;;6.60;99.90;;;;;;4994998;28;20184;-63
2023/12/22 03:45:50;;;;;;;3.53;0.70;;;6.40;99.90;;;;;;4995113;28;20184;-63
2023/12/22 03:48:16;;;;;;;1.23;0.60;;;6.40;99.90;;;;;;4992620;28;20601;-64
2023/12/22 03:50:41;;;;;;;7.80;1.50;;;6.40;99.90;;;;;;4993769;28;20294;-64
2023/12/22 03:53:07;;;;;;;2.23;0.80;;;6.40;99.90;;;;;;4994789;28;20184;-64
2023/12/22 03:55:32;;;;;;;3.57;1.10;;;6.40;99.90;;;;;;4994807;28;20652;-64
2023/12/22 03:57:58;;;;;;;2.27;1.20;;;6.50;99.90;;;;;;4994538;28;20276;-63
2023/12/22 04:00:23;;;;;;;5.07;1.37;;;6.40;99.90;;;;;;4994849;28;20198;-64
2023/12/22 04:02:49;;;;;;;3.53;1.40;;;6.40;99.90;;;;;;4993936;28;20190;-58
2023/12/22 04:05:14;;;;;;;5.07;1.43;;;6.30;99.90;;;;;;4993770;28;20651;-58
2023/12/22 04:07:40;;;;;;;3.43;1.03;;;6.30;99.90;;;;;;4993837;28;20194;-63
2023/12/22 04:10:06;;;;;;;15.23;1.30;;;6.40;99.90;;;;;;4991338;28;20256;-64
2023/12/22 04:12:31;;;;;;;6.40;1.07;;;6.40;99.90;;;;;;4992958;28;20206;-58
2023/12/22 04:14:57;;;;;;;3.30;0.90;;;6.40;99.90;;;;;;4994051;28;20888;-58
2023/12/22 04:17:22;;;;;;;7.03;1.10;;;6.40;99.90;;;;;;4992521;28;20215;-64
2023/12/22 04:19:48;;;;;;;4.40;1.40;;;6.60;99.90;;;;;;4986001;28;20215;-64
2023/12/22 04:22:13;;;;;;;2.30;1.40;;;6.40;99.90;;;;;;4986812;28;20187;-58
2023/12/22 04:24:39;;;;;;;18.33;2.00;;;6.40;99.90;;;;;;4993112;28;20656;-58
2023/12/22 04:27:04;;;;;;;8.17;1.40;;;6.40;99.90;;;;;;4995429;28;20199;-64
2023/12/22 04:29:30;;;;;;;4.40;1.23;;;6.30;99.90;;;;;;4995087;28;20208;-64
2023/12/22 04:31:55;;;;;;;5.60;1.07;;;6.40;99.90;;;;;;4977078;28;20211;-64
2023/12/22 04:34:21;;;;;;;11.20;1.00;;;6.30;99.90;;;;;;4995253;28;20179;-63
2023/12/22 04:36:46;;;;;;;4.90;1.10;;;6.20;99.90;;;;;;4995349;28;20565;-64
2023/12/22 04:39:12;;;;;;;2.40;1.03;;;6.20;99.90;;;;;;4993691;28;20258;-64
2023/12/22 04:41:37;;;;;;;1.40;0.63;;;5.90;99.90;;;;;;4986046;28;20262;-64
2023/12/22 04:44:03;;;;;;;3.40;0.90;;;5.80;99.90;;;;;;4988876;28;20188;-64
2023/12/22 04:46:31;;;;;;;3.87;0.73;;;5.80;99.90;;;;;;4985017;28;20180;-64
2023/12/22 04:48:57;;;;;;;10.77;1.63;;;5.70;99.90;;;;;;4992704;28;20231;-64
2023/12/22 04:51:23;;;;;;;2.63;0.83;;;5.70;99.90;;;;;;4995059;28;20430;-64
2023/12/22 04:53:49;;;;;;;8.43;1.03;;;5.70;99.90;;;;;;4995606;28;20199;-64
2023/12/22 04:56:15;;;;;;;4.07;1.03;;;5.70;99.90;;;;;;4995168;28;20419;-65
2023/12/22 04:58:40;;;;;;;4.60;1.13;;;5.70;99.90;;;;;;4995081;28;20259;-64
2023/12/22 05:01:06;;;;;;;1.10;0.50;;;5.70;99.90;;;;;;4994807;28;20208;-64
2023/12/22 05:03:31;;;;;;;5.90;1.83;;;5.70;99.90;;;;;;4994248;28;20597;-64
2023/12/22 05:05:57;;;;;;;6.87;1.43;;;5.60;99.90;;;;;;4994672;28;20184;-64
2023/12/22 05:08:22;;;;;;;4.30;0.80;;;5.70;99.90;;;;;;4994474;28;20643;-63
2023/12/22 05:10:48;;;;;;;11.70;1.57;;;5.80;99.90;;;;;;4990658;28;20211;-64
2023/12/22 05:13:13;;;;;;;3.83;1.43;;;5.80;99.90;;;;;;4994521;28;20183;-64
2023/12/22 05:15:39;;;;;;;3.67;1.17;;;5.80;99.90;;;;;;4994666;28;20199;-64
2023/12/22 05:18:04;;;;;;;2.90;1.27;;;5.80;99.90;;;;;;4963611;28;20219;-64
2023/12/22 05:20:30;;;;;;;13.63;1.57;;;5.80;99.90;;;;;;4993721;28;20277;-64
2023/12/22 05:22:55;;;;;;;6.60;1.87;;;5.80;99.90;;;;;;4994285;28;20192;-63
2023/12/22 05:25:21;;;;;;;5.90;1.30;;;5.90;99.90;;;;;;4994063;28;20705;-64
2023/12/22 05:27:46;;;;;;;4.57;1.40;;;6.00;99.90;;;;;;4994028;28;20226;-64
2023/12/22 05:30:12;;;;;;;11.93;1.90;;;6.00;99.90;;;;;;4988108;28;20254;-62
2023/12/22 05:32:38;;;;;;;4.40;1.20;;;6.00;99.90;;;;;;4983544;28;20684;-62
2023/12/22 05:35:04;;;;;;;8.40;2.07;;;6.10;99.90;;;;;;4993770;28;20431;-63
2023/12/22 05:37:29;;;;;;;4.30;1.67;;;6.10;99.90;;;;;;4993507;28;20254;-57
2023/12/22 05:39:55;;;;;;;8.07;1.60;;;6.10;99.90;;;;;;4986439;28;20634;-57
2023/12/22 05:42:21;;;;;;;4.90;1.30;;;6.20;99.90;;;;;;4990480;28;20274;-63
2023/12/22 05:44:49;;;;;;;16.03;1.30;;;6.20;99.90;;;;;;4987312;28;20514;-62
2023/12/22 05:47:18;;;;;;;8.60;1.87;;;6.20;99.90;;;;;;4993421;28;20648;-63
2023/12/22 05:49:43;;;;;;;8.40;1.87;;;6.30;99.90;;;;;;4993430;28;20470;-63
2023/12/22 05:52:12;;;;;;;2.30;1.57;;;6.30;99.90;;;;;;4993521;28;20962;-63
2023/12/22 05:54:38;;;;;;;7.57;1.60;;;6.30;99.90;;;;;;4994034;28;20552;-63
2023/12/22 05:57:06;;;;;;;2.00;0.97;;;6.30;99.90;;;;;;4993706;28;20506;-63
2023/12/22 05:59:32;;;;;;;3.97;1.10;;;6.30;99.90;;;;;;4994050;28;20195;-63
2023/12/22 06:01:58;;;;;;;8.90;1.67;;;6.30;99.90;;;;;;4990071;28;20431;-63
2023/12/22 06:04:27;;;;;;;3.67;1.00;;;6.20;99.90;;;;;;4985359;28;20475;-64
2023/12/22 06:06:53;;;;;;;3.43;1.00;;;6.00;99.90;;;;;;4993579;28;20966;-63
2023/12/22 06:09:20;;;;;;;7.47;1.53;;;6.00;99.90;;;;;;4991150;28;20425;-63
2023/12/22 06:11:46;;;;;;;15.13;1.90;;;5.90;99.90;;;;;;4992599;28;20939;-63
2023/12/22 06:14:11;;;;;;;5.33;1.10;;;6.00;99.90;;;;;;4993609;28;20474;-63
2023/12/22 06:16:37;;;;;;;10.13;1.40;;;6.00;99.90;;;;;;4988234;28;20184;-57
2023/12/22 06:19:03;;;;;;;10.83;1.70;;;6.00;99.90;;;;;;4985063;28;20186;-57
2023/12/22 06:21:28;;;;;;;6.07;1.53;;;6.10;99.90;;;;;;4992181;28;20306;-63
2023/12/22 06:23:54;;;;;;;8.93;1.20;;;6.20;99.90;;;;;;4993382;28;20621;-63
2023/12/22 06:26:19;;;;;;;6.13;1.20;;;6.10;99.90;;;;;;4987852;28;20176;-63
2023/12/22 06:28:45;;;;;;;7.60;1.80;;;6.10;99.90;;;;;;4985261;28;20546;-63
2023/12/22 06:31:21;;;;;;;9.00;2.40;;;6.10;99.90;;;;;;4979464;28;20290;-57
2023/12/22 06:33:51;;;;;;;1.80;1.23;;;6.10;99.90;;;;;;4985740;28;20508;-57
2023/12/22 06:36:25;;;;;;;7.67;1.33;;;6.00;99.90;;;;;;4992379;28;20477;-63
2023/12/22 06:38:51;;;;;;;11.03;1.20;;;5.90;99.90;;;;;;4993168;28;20415;-63
2023/12/22 06:41:30;;;;;;;8.00;2.17;;;5.80;99.90;;;;;;4993054;28;20786;-63
2023/12/22 06:43:56;;;;;;;9.03;1.97;;;5.80;99.90;;;;;;4986748;28;20446;-63
2023/12/22 06:46:27;;;;;;;5.17;1.47;;;5.70;99.90;;;;;;4992854;28;20438;-63
2023/12/22 06:48:56;;;;;;;5.43;2.00;;;5.70;99.90;;;;;;4992245;28;20450;-63
2023/12/22 06:51:23;;;;;;;8.97;1.80;;;5.60;99.90;;;;;;4992330;28;20463;-63
2023/12/22 06:53:50;;;;;;;4.57;1.30;;;5.60;99.90;;;;;;4992251;28;20430;-63
2023/12/22 06:56:19;;;;;;;5.10;1.63;;;5.70;99.90;;;;;;4992974;28;20509;-63
2023/12/22 06:58:48;;;;;;;8.90;2.10;;;5.70;99.90;;;;;;4992911;28;20423;-63
2023/12/22 07:01:21;;;;;;;6.97;1.17;;;5.70;99.90;;;;;;4987793;28;20438;-57
2023/12/22 07:03:48;;;;;;;5.90;2.17;;;5.70;99.90;;;;;;4978484;28;20427;-58
2023/12/22 07:06:14;;;;;;;7.13;1.77;;;5.80;99.90;;;;;;4991314;28;20891;-63
2023/12/22 07:08:40;;;;;;;7.03;1.77;;;5.90;99.90;;;;;;4992399;28;20565;-63
2023/12/22 07:11:07;;;;;;;8.57;2.13;;;5.90;99.90;;;;;;4992896;28;20581;-64
2023/12/22 07:13:32;;;;;;;5.83;1.40;;;5.80;99.90;;;;;;4992869;28;20183;-64
2023/12/22 07:15:58;;;;;;;2.83;1.07;;;5.80;99.90;;;;;;4992996;28;20423;-58
2023/12/22 07:18:25;;;;;;;7.63;2.00;;;5.80;99.90;;;;;;4978741;28;20319;-58
2023/12/22 07:20:50;;;;;;;4.77;1.60;;;5.80;99.90;;;;;;4958618;28;21037;-58
2023/12/22 07:23:16;;;;;;;7.33;2.03;;;5.80;99.90;;;;;;4978936;28;20432;-57
2023/12/22 07:25:41;;;;;;;4.43;1.47;;;5.80;99.90;;;;;;4949117;28;21454;-58
2023/12/22 07:28:07;;;;;;;8.60;1.30;;;5.80;99.90;;;;;;4961517;28;20214;-57
2023/12/22 07:30:32;;;;;;;10.73;1.60;;;5.80;99.90;;;;;;4973587;28;20204;-58
2023/12/22 07:32:58;;;;;;;13.10;2.10;;;5.80;99.90;;;;;;4979895;28;20653;-57
2023/12/22 07:35:23;;;;;;;3.80;0.93;;;5.80;99.90;;;;;;4988421;28;20192;-58
2023/12/22 07:37:49;;;;;;;5.50;1.40;;;5.80;99.90;;;;;;4990398;28;20200;-58
2023/12/22 07:40:14;;;;;;;8.43;1.77;;;5.80;99.90;;;;;;4999274;23;20248;-58
2023/12/22 07:42:40;;;;;;;5.13;1.33;;;5.70;99.90;;;;;;4988041;28;20183;-58
2023/12/22 07:45:06;;;;;;;10.20;1.40;;;5.80;99.90;;;;;;4977645;28;20722;-58
2023/12/22 07:47:32;;;;;;;4.57;1.83;;;5.70;99.90;;;;;;4977030;28;20194;-58
2023/12/22 07:49:58;;;;;;;5.73;2.07;;;5.70;99.90;;;;;;4961750;28;20555;-58
2023/12/22 07:57:24;;;;;;;7.77;2.20;;;5.70;99.90;;;;;;5538795;23;20257;-62
2023/12/22 07:59:50;;;;;;;8.63;2.10;;;5.80;99.90;;;;;;4994732;28;20447;-62
2023/12/22 08:02:15;;;;;;;7.60;1.83;;;5.80;99.90;;;;;;4996497;28;20284;-62
2023/12/22 08:04:41;;;;;;;3.23;1.30;;;5.80;99.90;;;;;;5005168;28;20190;-62
2023/12/22 08:07:06;;;;;;;12.47;3.13;;;5.90;99.90;;;;;;5009774;28;20452;-62
2023/12/22 08:09:32;;;;;;;8.20;2.20;;;5.90;99.90;;;;;;5008979;28;20950;-62
2023/12/22 08:11:58;;;;;;;7.13;1.60;;;5.90;99.90;;;;;;5008352;28;20190;-62
2023/12/22 08:14:23;;;;;;;7.90;1.50;;;6.00;99.90;;;;;;5010185;28;20413;-62
2023/12/22 08:16:49;;;;;;;5.93;2.67;;;6.10;99.90;;;;;;5009741;28;20651;-63
2023/12/22 08:19:14;;;;;;;14.43;1.57;;;6.20;99.90;;;;;;5011082;28;20183;-62
2023/12/22 08:21:42;;;;;;;4.60;1.70;;;6.20;99.90;;;;;;5008525;28;20195;-62
2023/12/22 08:24:08;;;;;;;8.17;2.20;;;6.20;99.90;;;;;;5003093;28;20191;-63
2023/12/22 08:26:33;;;;;;;6.27;1.40;;;6.20;99.90;;;;;;5011486;28;20434;-63
2023/12/22 08:28:59;;;;;;;9.43;1.80;;;6.30;99.90;;;;;;5011802;28;20187;-62
2023/12/22 08:31:24;;;;;;;5.90;1.47;;;6.40;99.90;;;;;;5015646;28;20214;-62
2023/12/22 08:33:50;;;;;;;3.10;1.30;;;6.40;99.90;;;;;;5011157;28;20217;-63
2023/12/22 08:36:15;;;;;;;7.87;1.80;;;6.50;99.90;;;;;;5009489;28;20183;-62
2023/12/22 08:38:41;;;;;;;6.00;2.43;;;6.40;99.90;;;;;;5006415;28;20184;-62
2023/12/22 08:41:08;;;;;;;9.87;1.40;;;6.50;99.90;;;;;;5010803;28;20187;-63
2023/12/22 08:43:34;;;;;;;5.13;1.20;;;6.70;99.90;;;;;;5011337;28;20183;-62
2023/12/22 08:45:59;;;;;;;9.83;2.70;;;6.70;99.90;;;;;;5010917;28;20573;-62
2023/12/22 08:48:25;;;;;;;12.23;2.30;;;6.50;99.90;;;;;;5010591;28;20541;-62
2023/12/22 08:50:50;;;;;;;5.30;1.53;;;6.50;99.90;;;;;;5010116;28;20207;-62
2023/12/22 08:53:16;;;;;;;13.30;2.10;;;6.50;99.90;;;;;;5004718;28;20191;-62
2023/12/22 08:55:41;;;;;;;5.00;1.73;;;6.60;99.90;;;;;;5004802;28;20262;-62
2023/12/22 08:58:07;;;;;;;5.30;1.20;;;6.40;99.90;;;;;;5004672;28;20223;-61
2023/12/22 09:00:32;;;;;;;1.60;1.03;;;6.50;99.90;;;;;;5007199;28;20183;-62
2023/12/22 09:02:58;;;;;;;5.57;1.40;;;6.60;99.90;;;;;;5010055;28;20277;-62
2023/12/22 09:05:23;;;;;;;8.57;1.70;;;6.50;99.90;;;;;;5007983;28;20198;-62
2023/12/22 09:07:49;;;;;;;5.23;1.50;;;6.60;99.90;;;;;;5011697;28;20561;-62
2023/12/22 09:10:14;;;;;;;11.90;1.83;;;6.70;99.90;;;;;;5008641;28;20222;-62
2023/12/22 09:12:40;;;;;;;15.37;2.50;;;6.60;99.90;;;;;;5011466;28;20199;-62
2023/12/22 09:15:06;;;;;;;6.70;1.53;;;6.60;99.90;;;;;;5012604;28;20202;-62
2023/12/22 09:17:32;;;;;;;7.90;1.50;;;6.60;99.90;;;;;;5008114;28;20325;-62
2023/12/22 09:19:58;;;;;;;11.63;2.17;;;6.60;99.90;;;;;;5012219;28;20213;-62
2023/12/22 09:22:23;;;;;;;7.93;1.60;;;6.60;99.90;;;;;;5011929;28;20786;-62
2023/12/22 09:24:49;;;;;;;12.20;1.43;;;6.40;99.90;;;;;;5011911;28;20229;-62
2023/12/22 09:27:14;;;;;;;6.83;2.07;;;6.30;99.90;;;;;;5011842;28;20666;-62
2023/12/22 09:29:40;;;;;;;20.43;1.77;;;6.30;99.90;;;;;;5013684;28;20226;-62
2023/12/22 09:32:06;;;;;;;6.40;1.87;;;6.40;99.90;;;;;;5019336;28;20198;-62
2023/12/22 09:34:31;;;;;;;3.50;1.30;;;6.40;99.90;;;;;;5012250;28;20179;-62
2023/12/22 09:36:57;;;;;;;8.53;2.00;;;6.40;99.90;;;;;;5011811;28;20418;-62
2023/12/22 09:39:22;;;;;;;9.83;1.73;;;6.50;99.90;;;;;;5019433;28;20305;-62
2023/12/22 09:41:49;;;;;;;10.17;1.70;;;6.60;99.90;;;;;;5011720;28;20206;-62
2023/12/22 09:44:23;;;;;;;5.90;1.50;;;6.50;99.90;;;;;;5012029;28;20187;-62
2023/12/22 09:46:50;;;;;;;10.33;2.40;;;6.50;99.90;;;;;;5011941;28;20429;-62
2023/12/22 09:49:17;;;;;;;8.57;1.37;;;6.50;99.90;;;;;;5012819;28;20433;-63
2023/12/22 09:51:44;;;;;;;9.33;2.30;;;6.50;99.90;;;;;;5011111;28;20430;-62
2023/12/22 09:54:10;;;;;;;9.33;2.20;;;6.50;99.90;;;;;;5007495;28;20992;-62
2023/12/22 09:56:41;;;;;;;8.07;1.50;;;6.50;99.90;;;;;;5011126;28;20497;-63
2023/12/22 09:59:12;;;;;;;5.90;2.00;;;6.70;99.90;;;;;;5010546;28;20484;-62
2023/12/22 10:01:41;;;;;;;18.23;2.03;;;6.60;99.90;;;;;;5011419;28;20414;-62
2023/12/22 10:04:07;;;;;;;8.93;2.20;;;6.70;99.90;;;;;;5011045;28;20430;-62
2023/12/22 10:06:32;;;;;;;13.30;2.20;;;6.60;99.90;;;;;;5011056;28;20444;-62
2023/12/22 10:08:58;;;;;;;8.67;2.10;;;6.80;99.90;;;;;;5012432;28;20180;-62
2023/12/22 10:11:26;;;;;;;5.13;1.73;;;6.80;99.90;;;;;;5011192;28;20218;-62
2023/12/22 10:13:53;;;;;;;9.53;2.10;;;6.70;99.90;;;;;;4989807;28;20533;-62
2023/12/22 10:16:19;;;;;;;15.50;2.20;;;6.70;99.90;;;;;;5011497;28;21724;-62
2023/12/22 10:18:44;;;;;;;15.80;1.93;;;6.70;99.90;;;;;;5011639;28;20446;-64
2023/12/22 10:21:10;;;;;;;10.20;2.20;;;6.90;99.90;;;;;;5010216;28;20187;-62
2023/12/22 10:23:36;;;;;;;11.33;2.87;;;6.80;99.90;;;;;;5004453;28;20276;-61
2023/12/22 10:26:01;;;;;;;8.90;2.33;;;6.90;99.90;;;;;;5005945;28;20647;-63
2023/12/22 10:28:28;;;;;;;3.37;1.33;;;7.00;99.90;;;;;;5000992;28;20183;-64
2023/12/22 10:30:55;;;;;;;6.87;2.37;;;6.80;99.90;;;;;;5011403;28;20205;-67
2023/12/22 10:33:21;;;;;;;9.70;2.17;;;6.80;99.90;;;;;;5011628;28;20449;-64
2023/12/22 10:35:48;;;;;;;7.93;2.03;;;7.20;99.90;;;;;;5008497;28;20918;-64
2023/12/22 10:38:14;;;;;;;8.23;1.53;;;7.50;99.90;;;;;;5010799;28;20289;-67
2023/12/22 10:40:39;;;;;;;2.80;1.23;;;7.10;99.90;;;;;;5009173;28;20960;-67
2023/12/22 10:43:05;;;;;;;3.67;1.53;;;6.90;99.90;;;;;;5010130;28;20369;-64
2023/12/22 10:45:31;;;;;;;2.90;1.20;;;6.70;99.90;;;;;;5010161;28;20654;-64
2023/12/22 10:47:57;;;;;;;4.50;1.30;;;6.70;99.90;;;;;;5009970;28;20178;-67
2023/12/22 10:50:24;;;;;;;4.53;1.57;;;6.90;99.90;;;;;;5007940;28;20616;-67
2023/12/22 10:52:51;;;;;;;2.70;1.10;;;6.90;99.90;;;;;;5009462;28;20480;-67
2023/12/22 10:55:17;;;;;;;5.27;1.60;;;7.00;99.90;;;;;;5003847;28;20423;-67
2023/12/22 10:57:47;;;;;;;4.00;1.70;;;6.80;99.90;;;;;;5001497;28;20466;-64
2023/12/22 11:00:16;;;;;;;6.83;2.00;;;6.40;99.90;;;;;;5005936;28;20427;-64
2023/12/22 11:02:43;;;;;;;8.63;1.83;;;6.30;99.90;;;;;;4994719;28;20439;-67
2023/12/22 11:05:12;;;;;;;2.17;0.93;;;6.40;99.90;;;;;;4983070;28;20457;-67
2023/12/22 11:07:38;;;;;;;8.57;1.03;;;6.30;99.90;;;;;;4983077;28;20458;-67
2023/12/22 11:10:06;;;;;;;5.83;1.13;;;6.20;99.90;;;;;;4977067;28;20470;-67
2023/12/22 11:12:38;;;;;;;2.03;1.23;;;6.20;99.90;;;;;;4986698;28;20481;-67
2023/12/22 11:15:08;;;;;;;8.00;1.10;;;6.20;99.90;;;;;;4982949;28;20435;-67
2023/12/22 11:17:44;;;;;;;5.33;1.00;;;6.20;99.90;;;;;;4986937;28;20817;-67
2023/12/22 11:20:10;;;;;;;5.47;1.27;;;6.10;99.90;;;;;;4987428;28;20413;-66
2023/12/22 11:22:36;;;;;;;6.70;1.00;;;6.20;99.90;;;;;;4997196;28;20981;-67
2023/12/22 11:25:02;;;;;;;5.07;1.53;;;6.10;99.90;;;;;;5004672;28;20426;-67
2023/12/22 11:27:29;;;;;;;4.63;1.30;;;6.10;99.90;;;;;;4991150;28;20659;-67
2023/12/22 11:29:55;;;;;;;2.27;1.10;;;6.10;99.90;;;;;;5004014;28;20812;-67
2023/12/22 11:32:21;;;;;;;3.03;1.40;;;6.00;99.90;;;;;;4996379;28;20453;-64
2023/12/22 11:34:47;;;;;;;5.50;2.10;;;6.10;99.90;;;;;;4998863;28;20906;-62
2023/12/22 11:37:14;;;;;;;10.90;1.87;;;5.90;99.90;;;;;;4983555;28;20266;-65
2023/12/22 11:39:41;;;;;;;12.60;1.67;;;6.10;99.90;;;;;;4982798;28;20522;-65
2023/12/22 11:42:14;;;;;;;5.80;1.30;;;5.90;99.90;;;;;;4992356;28;20430;-63
2023/12/22 11:44:40;;;;;;;6.50;1.40;;;6.10;99.90;;;;;;4996393;28;20980;-63
2023/12/22 11:47:07;;;;;;;1.83;0.90;;;6.00;99.90;;;;;;4999469;28;20886;-65
2023/12/22 11:49:34;;;;;;;7.70;1.57;;;5.90;99.90;;;;;;4995634;28;20510;-65
2023/12/22 11:52:12;;;;;;;6.30;1.77;;;5.90;99.90;;;;;;4996030;28;20481;-65
2023/12/22 11:54:52;;;;;;;4.83;1.90;;;5.90;99.90;;;;;;4999507;28;20517;-65
2023/12/22 11:57:35;;;;;;;5.13;2.20;;;5.90;99.90;;;;;;4991635;28;20462;-63
2023/12/22 12:00:31;;;;;;;1.40;0.80;;;5.90;99.90;;;;;;4991498;28;20951;-63
2023/12/22 12:02:57;;;;;;;2.03;0.83;;;5.90;99.90;;;;;;5001774;28;20929;-65
2023/12/22 12:05:23;;;;;;;3.77;1.43;;;5.90;99.90;;;;;;4995880;28;20545;-66
2023/12/22 12:07:49;;;;;;;4.63;1.60;;;5.90;99.90;;;;;;5008884;28;20191;-66
2023/12/22 12:10:32;;;;;;;1.20;0.60;;;6.00;99.90;;;;;;5007644;28;20734;-66
2023/12/22 12:13:08;;;;;;;1.33;0.80;;;6.00;99.90;;;;;;5009625;28;20418;-65
2023/12/22 12:15:35;;;;;;;5.60;0.90;;;6.00;99.90;;;;;;5010697;28;20417;-64
2023/12/22 12:18:01;;;;;;;2.20;0.87;;;5.90;99.90;;;;;;4997185;28;20427;-65
2023/12/22 12:20:27;;;;;;;3.20;0.93;;;5.90;99.90;;;;;;4994734;28;20848;-65
2023/12/22 12:22:53;;;;;;;1.70;0.83;;;5.90;99.90;;;;;;5005392;28;20427;-65
2023/12/22 12:25:25;;;;;;;1.63;0.67;;;5.90;99.90;;;;;;5009708;28;20266;-65
2023/12/22 12:28:06;;;;;;;1.50;0.60;;;5.90;99.90;;;;;;5005561;28;20440;-62
2023/12/22 12:30:33;;;;;;;2.00;0.50;;;6.00;99.90;;;;;;5002890;28;20540;-64
2023/12/22 12:33:05;;;;;;;1.40;0.60;;;6.00;99.90;;;;;;4997562;28;20449;-65
2023/12/22 12:35:32;;;;;;;3.80;0.70;;;6.00;99.90;;;;;;4998728;28;20419;-65
2023/12/22 12:37:59;;;;;;;6.57;0.97;;;6.00;99.90;;;;;;5011049;28;20519;-65
2023/12/22 12:40:29;;;;;;;4.00;0.80;;;6.00;99.90;;;;;;4997090;28;20449;-65
2023/12/22 12:42:56;;;;;;;4.03;1.13;;;6.10;99.90;;;;;;4988804;28;20834;-66
2023/12/22 12:45:24;;;;;;;2.50;0.97;;;6.10;99.90;;;;;;4999174;28;22552;-66
2023/12/22 12:48:00;;;;;;;2.23;1.20;;;6.10;99.90;;;;;;5006059;28;20726;-63
2023/12/22 12:50:31;;;;;;;1.40;0.50;;;6.20;99.90;;;;;;5003637;28;20473;-63
2023/12/22 12:52:56;;;;;;;1.20;0.60;;;6.30;99.90;;;;;;5002636;28;20471;-63
2023/12/22 12:55:23;;;;;;;1.50;0.80;;;6.50;99.90;;;;;;5006681;28;20468;-62
2023/12/22 12:57:50;;;;;;;1.30;0.50;;;6.50;99.90;;;;;;5005390;28;20231;-63